createdAt,value
2018-11-04T00:01:06.686Z,4.25
2018-11-04T00:03:35.527Z,5.12
2018-11-04T00:06:04.573Z,4.85
2018-11-04T00:08:33.325Z,3.90
2018-11-04T00:11:02.096Z,5.92
2018-11-04T00:13:30.873Z,5.75
2018-11-04T00:15:59.736Z,4.83
2018-11-04T00:18:28.541Z,5.90
2018-11-04T00:20:57.311Z,3.47
2018-11-04T00:23:26.146Z,5.67
2018-11-04T00:25:54.900Z,3.60
2018-11-04T00:28:23.646Z,3.65
2018-11-04T00:30:52.415Z,4.17
2018-11-04T00:33:21.220Z,4.12
2018-11-04T00:35:50.040Z,4.42
2018-11-04T00:38:20.192Z,3.92
2018-11-04T00:40:49.044Z,4.90
2018-11-04T00:43:17.747Z,4.70
2018-11-04T00:45:46.523Z,4.85
2018-11-04T00:48:15.306Z,4.85
2018-11-04T00:50:44.043Z,3.42
2018-11-04T00:53:12.831Z,3.67
2018-11-04T00:55:46.920Z,3.77
2018-11-04T00:58:15.727Z,4.28
2018-11-04T01:00:44.569Z,4.65
2018-11-04T01:03:13.358Z,3.95
2018-11-04T01:05:42.106Z,2.72
2018-11-04T01:08:10.834Z,5.53
2018-11-04T01:10:39.533Z,3.30
2018-11-04T01:13:08.296Z,5.00
2018-11-04T01:15:36.986Z,3.12
2018-11-04T01:18:05.876Z,2.92
2018-11-04T01:20:34.575Z,3.85
2018-11-04T01:23:03.293Z,4.37
2018-11-04T01:25:32.065Z,3.30
2018-11-04T01:28:00.794Z,3.72
2018-11-04T01:30:29.638Z,3.50
2018-11-04T01:32:58.375Z,3.92
2018-11-04T01:35:27.163Z,3.87
2018-11-04T01:37:55.817Z,4.60
2018-11-04T01:40:24.556Z,4.35
2018-11-04T01:42:53.241Z,4.10
2018-11-04T01:45:21.925Z,4.78
2018-11-04T01:47:50.711Z,3.70
2018-11-04T01:50:19.398Z,4.10
2018-11-04T01:52:48.187Z,4.97
2018-11-04T01:55:17.974Z,5.03
2018-11-04T01:57:47.091Z,5.03
2018-11-04T02:00:16.802Z,4.03
2018-11-04T02:02:46.255Z,3.65
2018-11-04T02:05:15.452Z,3.92
2018-11-04T02:07:44.223Z,5.28
2018-11-04T02:10:14.143Z,4.92
2018-11-04T02:12:42.895Z,3.47
2018-11-04T02:15:12.598Z,4.55
2018-11-04T02:17:41.305Z,2.80
2018-11-04T02:20:11.553Z,4.83
2018-11-04T02:22:40.845Z,2.80
2018-11-04T02:25:10.862Z,4.37
2018-11-04T02:27:39.917Z,3.52
2018-11-04T02:30:11.097Z,3.72
2018-11-04T02:32:40.246Z,3.62
2018-11-04T02:35:09.046Z,5.40
2018-11-04T02:37:37.829Z,5.08
2018-11-04T02:40:07.103Z,4.33
2018-11-04T02:42:36.057Z,3.58
2018-11-04T02:45:05.319Z,3.75
2018-11-04T02:47:34.184Z,3.40
2018-11-04T02:50:02.895Z,3.62
2018-11-04T02:52:31.684Z,3.52
2018-11-04T02:55:00.376Z,4.22
2018-11-04T02:57:29.105Z,3.47
2018-11-04T02:59:57.876Z,4.03
2018-11-04T03:02:26.652Z,4.95
2018-11-04T03:04:55.420Z,3.50
2018-11-04T03:07:24.128Z,4.45
2018-11-04T03:09:52.932Z,3.58
2018-11-04T03:12:21.674Z,4.97
2018-11-04T03:14:50.386Z,3.67
2018-11-04T03:17:19.182Z,3.37
2018-11-04T03:19:47.889Z,4.22
2018-11-04T03:22:16.659Z,4.97
2018-11-04T03:24:45.609Z,5.20
2018-11-04T03:27:14.204Z,3.50
2018-11-04T03:29:42.923Z,5.00
2018-11-04T03:32:11.756Z,4.53
2018-11-04T03:34:40.467Z,3.77
2018-11-04T03:37:09.240Z,3.40
2018-11-04T03:39:37.971Z,2.40
2018-11-04T03:42:06.738Z,3.30
2018-11-04T03:44:35.443Z,4.35
2018-11-04T03:47:04.393Z,5.75
2018-11-04T03:49:33.189Z,3.70
2018-11-04T03:52:01.973Z,4.30
2018-11-04T03:54:30.737Z,4.00
2018-11-04T03:56:59.495Z,3.70
2018-11-04T03:59:28.268Z,3.42
2018-11-04T04:01:57.047Z,3.85
2018-11-04T04:04:25.823Z,3.08
2018-11-04T04:06:54.567Z,3.27
2018-11-04T04:09:23.309Z,3.15
2018-11-04T04:11:52.064Z,3.92
2018-11-04T04:14:20.805Z,3.00
2018-11-04T04:16:49.603Z,3.05
2018-11-04T04:19:18.318Z,2.05
2018-11-04T04:21:47.168Z,3.72
2018-11-04T04:24:15.885Z,3.37
2018-11-04T04:26:44.633Z,3.47
2018-11-04T04:29:15.098Z,3.35
2018-11-04T04:31:45.269Z,2.90
2018-11-04T04:34:14.273Z,3.17
2018-11-04T04:36:43.012Z,2.85
2018-11-04T04:39:12.181Z,3.70
2018-11-04T04:41:41.037Z,3.95
2018-11-04T04:44:11.055Z,5.55
2018-11-04T04:46:39.909Z,3.15
2018-11-04T04:49:08.640Z,3.50
2018-11-04T04:51:37.528Z,2.58
2018-11-04T04:54:06.237Z,3.40
2018-11-04T04:56:36.384Z,4.50
2018-11-04T04:59:05.160Z,4.40
2018-11-04T05:01:33.959Z,4.60
2018-11-04T05:04:02.643Z,5.28
2018-11-04T05:06:31.471Z,3.50
2018-11-04T05:09:00.241Z,2.30
2018-11-04T05:11:29.048Z,3.92
2018-11-04T05:13:57.784Z,3.30
2018-11-04T05:16:26.567Z,4.70
2018-11-04T05:18:55.307Z,4.30
2018-11-04T05:21:24.123Z,2.77
2018-11-04T05:23:53.047Z,3.47
2018-11-04T05:26:21.795Z,3.10
2018-11-04T05:28:50.611Z,3.25
2018-11-04T05:31:19.328Z,3.30
2018-11-04T05:33:48.097Z,3.37
2018-11-04T05:36:16.921Z,4.70
2018-11-04T05:38:45.727Z,3.35
2018-11-04T05:41:14.468Z,4.50
2018-11-04T05:43:43.162Z,3.83
2018-11-04T05:46:11.882Z,4.42
2018-11-04T05:48:40.614Z,3.55
2018-11-04T05:51:09.371Z,3.12
2018-11-04T05:53:39.966Z,3.52
2018-11-04T05:56:10.973Z,4.80
2018-11-04T05:58:39.759Z,5.15
2018-11-04T06:01:09.462Z,4.58
2018-11-04T06:03:38.455Z,4.33
2018-11-04T06:06:07.270Z,3.92
2018-11-04T06:08:36.770Z,4.05
2018-11-04T06:11:06.256Z,6.72
2018-11-04T06:13:36.228Z,3.65
2018-11-04T06:16:05.810Z,5.45
2018-11-04T06:18:34.783Z,3.90
2018-11-04T06:21:03.595Z,3.02
2018-11-04T06:23:32.448Z,5.20
2018-11-04T06:26:01.175Z,3.05
2018-11-04T06:28:30.082Z,2.80
2018-11-04T06:30:58.956Z,3.70
2018-11-04T06:33:27.825Z,4.40
2018-11-04T06:35:56.591Z,3.25
2018-11-04T06:38:26.258Z,2.90
2018-11-04T06:40:55.063Z,3.33
2018-11-04T06:43:23.681Z,4.42
2018-11-04T06:45:52.430Z,3.60
2018-11-04T06:48:22.558Z,4.62
2018-11-04T06:50:51.485Z,3.00
2018-11-04T06:53:20.415Z,4.35
2018-11-04T06:55:49.427Z,3.80
2018-11-04T06:58:18.143Z,4.33
2018-11-04T07:00:46.875Z,4.20
2018-11-04T07:03:15.715Z,3.77
2018-11-04T07:05:44.405Z,3.35
2018-11-04T07:08:13.227Z,3.55
2018-11-04T07:10:42.078Z,3.75
2018-11-04T07:13:10.802Z,3.47
2018-11-04T07:15:39.583Z,4.60
2018-11-04T07:18:08.358Z,3.00
2018-11-04T07:20:37.257Z,3.60
2018-11-04T07:23:06.172Z,4.10
2018-11-04T07:25:35.052Z,4.22
2018-11-04T07:28:03.711Z,3.00
2018-11-04T07:30:32.483Z,3.20
2018-11-04T07:33:01.374Z,2.95
2018-11-04T07:35:30.211Z,3.47
2018-11-04T07:37:59.053Z,4.97
2018-11-04T07:40:27.865Z,4.40
2018-11-04T07:42:56.639Z,3.35
2018-11-04T07:45:25.536Z,4.25
2018-11-04T07:47:54.250Z,3.55
2018-11-04T07:50:23.126Z,3.65
2018-11-04T07:52:53.491Z,2.92
2018-11-04T07:55:22.221Z,4.05
2018-11-04T07:57:52.659Z,3.40
2018-11-04T08:00:21.381Z,3.65
2018-11-04T08:02:50.087Z,2.95
2018-11-04T08:05:18.781Z,2.65
2018-11-04T08:07:47.640Z,2.85
2018-11-04T08:10:17.165Z,3.02
2018-11-04T08:12:45.964Z,2.95
2018-11-04T08:15:14.647Z,3.20
2018-11-04T08:17:43.352Z,2.95
2018-11-04T08:20:12.156Z,4.75
2018-11-04T08:22:41.316Z,3.22
2018-11-04T08:25:10.012Z,4.10
2018-11-04T08:27:38.761Z,3.45
2018-11-04T08:30:08.295Z,4.53
2018-11-04T08:32:36.991Z,2.62
2018-11-04T08:35:06.331Z,2.50
2018-11-04T08:37:35.046Z,4.08
2018-11-04T08:40:03.828Z,3.70
2018-11-04T08:42:32.516Z,3.08
2018-11-04T08:45:02.761Z,3.60
2018-11-04T08:47:32.154Z,3.10
2018-11-04T08:50:01.100Z,3.77
2018-11-04T08:52:29.867Z,3.25
2018-11-04T08:54:58.688Z,3.30
2018-11-04T08:57:27.468Z,3.80
2018-11-04T08:59:56.304Z,2.80
2018-11-04T09:02:25.111Z,4.17
2018-11-04T09:04:53.859Z,3.20
2018-11-04T09:07:23.465Z,2.62
2018-11-04T09:09:53.937Z,4.03
2018-11-04T09:12:22.755Z,4.87
2018-11-04T09:14:51.451Z,2.08
2018-11-04T09:17:20.653Z,2.80
2018-11-04T09:19:49.466Z,2.50
2018-11-04T09:22:18.262Z,2.50
2018-11-04T09:24:47.333Z,2.60
2018-11-04T09:27:16.137Z,2.40
2018-11-04T09:29:44.872Z,3.00
2018-11-04T09:32:13.615Z,2.62
2018-11-04T09:34:42.393Z,3.72
2018-11-04T09:37:11.044Z,3.27
2018-11-04T09:39:39.788Z,3.25
2018-11-04T09:42:08.477Z,2.27
2018-11-04T09:44:37.245Z,2.77
2018-11-04T09:47:06.104Z,2.50
2018-11-04T09:49:35.519Z,2.77
2018-11-04T09:52:04.252Z,2.80
2018-11-04T09:54:32.977Z,3.65
2018-11-04T09:57:02.634Z,4.22
2018-11-04T09:59:31.349Z,3.10
2018-11-04T10:02:00.090Z,2.37
2018-11-04T10:04:28.883Z,1.95
2018-11-04T10:06:57.607Z,2.80
2018-11-04T10:09:26.395Z,2.58
2018-11-04T10:11:55.089Z,3.37
2018-11-04T10:14:23.800Z,3.20
2018-11-04T10:16:52.583Z,2.52
2018-11-04T10:19:21.713Z,3.20
2018-11-04T10:21:50.083Z,2.80
2018-11-04T10:24:18.935Z,4.05
2018-11-04T10:26:47.864Z,3.87
2018-11-04T10:29:16.542Z,3.85
2018-11-04T10:31:45.504Z,3.45
2018-11-04T10:34:14.427Z,3.08
2018-11-04T10:36:43.191Z,3.85
2018-11-04T10:39:12.871Z,4.47
2018-11-04T10:41:42.277Z,3.30
2018-11-04T10:44:11.003Z,2.60
2018-11-04T10:46:39.806Z,4.60
2018-11-04T10:49:08.544Z,3.60
2018-11-04T10:51:37.813Z,3.25
2018-11-04T10:54:06.530Z,3.62
2018-11-04T10:56:35.247Z,3.70
2018-11-04T10:59:04.004Z,4.00
2018-11-04T11:01:32.894Z,3.83
2018-11-04T11:04:01.624Z,3.30
2018-11-04T11:06:31.214Z,3.42
2018-11-04T11:09:00.035Z,3.42
2018-11-04T11:11:28.862Z,3.40
2018-11-04T11:13:57.585Z,2.92
2018-11-04T11:16:26.438Z,2.65
2018-11-04T11:18:57.112Z,3.25
2018-11-04T11:21:26.448Z,3.40
2018-11-04T11:23:55.284Z,1.95
2018-11-04T11:26:24.377Z,3.22
2018-11-04T11:28:53.084Z,2.85
2018-11-04T11:31:22.433Z,3.30
2018-11-04T11:33:52.063Z,2.60
2018-11-04T11:36:20.954Z,2.37
2018-11-04T11:38:49.872Z,3.12
2018-11-04T11:41:18.969Z,2.90
2018-11-04T11:43:47.710Z,2.65
2018-11-04T11:46:16.433Z,2.45
2018-11-04T11:48:45.236Z,2.90
2018-11-04T11:51:13.956Z,2.52
2018-11-04T11:53:42.690Z,3.40
2018-11-04T11:56:11.396Z,3.20
2018-11-04T11:58:40.107Z,4.30
2018-11-04T12:01:09.064Z,3.70
2018-11-04T12:03:37.790Z,2.70
2018-11-04T12:06:06.533Z,2.37
2018-11-04T12:08:35.245Z,2.62
2018-11-04T12:11:04.017Z,3.72
2018-11-04T12:13:32.923Z,4.00
2018-11-04T12:16:01.739Z,2.10
2018-11-04T12:18:30.459Z,4.10
2018-11-04T12:21:00.410Z,3.95
2018-11-04T12:23:29.158Z,3.70
2018-11-04T12:25:57.865Z,2.33
2018-11-04T12:28:27.202Z,3.85
2018-11-04T12:30:57.074Z,3.52
2018-11-04T12:33:25.874Z,3.00
2018-11-04T12:35:54.591Z,2.90
2018-11-04T12:38:23.331Z,2.70
2018-11-04T12:40:52.141Z,2.50
2018-11-04T12:43:20.981Z,3.22
2018-11-04T12:45:49.925Z,3.08
2018-11-04T12:48:18.492Z,3.00
2018-11-04T12:50:47.272Z,4.35
2018-11-04T12:53:16.579Z,2.90
2018-11-04T12:55:45.366Z,2.75
2018-11-04T12:58:15.502Z,3.33
2018-11-04T13:00:44.680Z,2.27
2018-11-04T13:03:13.395Z,2.25
2018-11-04T13:05:42.365Z,2.75
2018-11-04T13:08:11.299Z,3.05
2018-11-04T13:10:40.092Z,2.45
2018-11-04T13:13:08.822Z,3.17
2018-11-04T13:15:37.603Z,3.00
2018-11-04T13:18:06.626Z,2.15
2018-11-04T13:20:35.395Z,3.45
2018-11-04T13:23:04.372Z,1.50
2018-11-04T13:25:33.833Z,2.95
2018-11-04T13:28:02.593Z,4.20
2018-11-04T13:30:31.378Z,1.92
2018-11-04T13:33:00.223Z,2.55
2018-11-04T13:35:30.081Z,2.47
2018-11-04T13:37:58.904Z,2.60
2018-11-04T13:40:27.594Z,2.60
2018-11-04T13:42:56.401Z,2.20
2018-11-04T13:45:25.669Z,2.17
2018-11-04T13:47:55.535Z,2.65
2018-11-04T13:50:24.349Z,2.80
2018-11-04T13:52:53.175Z,2.80
2018-11-04T13:55:22.606Z,2.58
2018-11-04T13:57:51.333Z,3.30
2018-11-04T14:00:20.087Z,2.65
2018-11-04T14:02:49.490Z,2.70
2018-11-04T14:05:18.172Z,3.00
2018-11-04T14:07:46.903Z,4.50
2018-11-04T14:10:16.394Z,3.12
2018-11-04T14:12:45.733Z,3.25
2018-11-04T14:15:14.925Z,3.40
2018-11-04T14:17:43.743Z,2.40
2018-11-04T14:20:13.353Z,3.77
2018-11-04T14:22:42.302Z,2.83
2018-11-04T14:25:12.033Z,3.33
2018-11-04T14:27:40.823Z,3.12
2018-11-04T14:30:11.555Z,3.37
2018-11-04T14:32:40.361Z,3.37
2018-11-04T14:35:10.057Z,2.83
2018-11-04T14:37:39.675Z,3.67
2018-11-04T14:40:09.946Z,3.35
2018-11-04T14:42:39.359Z,3.70
2018-11-04T14:45:08.152Z,3.15
2018-11-04T14:47:37.847Z,4.50
2018-11-04T14:50:08.839Z,3.02
2018-11-04T14:52:37.867Z,2.87
2018-11-04T14:55:07.444Z,3.30
2018-11-04T14:57:36.596Z,2.75
2018-11-04T15:00:07.746Z,3.00
2018-11-04T15:02:36.492Z,3.30
2018-11-04T15:05:06.373Z,2.90
2018-11-04T15:07:35.280Z,2.85
2018-11-04T15:10:04.115Z,2.62
2018-11-04T15:12:33.165Z,3.83
2018-11-04T15:15:01.861Z,3.50
2018-11-04T15:17:30.888Z,2.70
2018-11-04T15:19:59.650Z,3.45
2018-11-04T15:22:28.422Z,3.25
2018-11-04T15:24:57.234Z,2.70
2018-11-04T15:27:25.898Z,2.70
2018-11-04T15:29:54.764Z,3.80
2018-11-04T15:32:23.426Z,3.00
2018-11-04T15:34:52.290Z,3.98
2018-11-04T15:37:20.919Z,3.95
2018-11-04T15:39:50.338Z,5.00
2018-11-04T15:42:19.034Z,3.08
2018-11-04T15:44:47.744Z,3.10
2018-11-04T15:47:16.514Z,3.25
2018-11-04T15:49:45.266Z,4.80
2018-11-04T15:52:14.611Z,4.17
2018-11-04T15:54:43.379Z,4.70
2018-11-04T15:57:13.915Z,4.28
2018-11-04T15:59:42.875Z,2.98
2018-11-04T16:02:11.867Z,4.67
2018-11-04T16:04:44.542Z,3.70
2018-11-04T16:07:09.459Z,4.08
2018-11-04T16:09:38.744Z,4.35
2018-11-04T16:12:07.786Z,4.87
2018-11-04T16:14:37.383Z,3.98
2018-11-04T16:17:06.269Z,3.17
2018-11-04T16:19:35.550Z,3.52
2018-11-04T16:22:04.371Z,3.70
2018-11-04T16:24:33.154Z,5.22
2018-11-04T16:27:02.956Z,4.58
2018-11-04T16:29:31.913Z,4.37
2018-11-04T16:32:00.729Z,3.45
2018-11-04T16:34:29.407Z,4.10
2018-11-04T16:36:58.151Z,4.92
2018-11-04T16:39:26.877Z,5.22
2018-11-04T16:41:55.780Z,5.50
2018-11-04T16:44:24.782Z,4.83
2018-11-04T16:46:54.858Z,4.75
2018-11-04T16:49:23.596Z,6.25
2018-11-04T16:51:52.627Z,10.78
2018-11-04T16:54:21.621Z,14.15
2018-11-04T16:56:52.858Z,18.23
2018-11-04T16:59:21.956Z,36.90
2018-11-04T17:01:50.676Z,66.28
2018-11-04T17:04:19.532Z,54.98
2018-11-04T17:06:48.847Z,55.38
2018-11-04T17:09:17.649Z,51.00
2018-11-04T17:11:46.524Z,47.03
2018-11-04T17:14:16.334Z,39.35
2018-11-04T17:16:45.005Z,48.60
2018-11-04T17:19:13.807Z,48.30
2018-11-04T17:21:42.618Z,47.90
2018-11-04T17:24:12.697Z,50.63
2018-11-04T17:26:41.918Z,44.77
2018-11-04T17:29:11.066Z,38.35
2018-11-04T17:31:39.813Z,39.30
2018-11-04T17:34:08.898Z,40.63
2018-11-04T17:36:37.710Z,39.67
2018-11-04T17:39:08.205Z,39.58
2018-11-04T17:41:36.914Z,33.80
2018-11-04T17:44:05.961Z,33.78
2018-11-04T17:46:34.774Z,35.30
2018-11-04T17:49:04.513Z,35.58
2018-11-04T17:51:33.268Z,33.08
2018-11-04T17:54:03.309Z,34.70
2018-11-04T17:56:32.196Z,32.28
2018-11-04T17:59:01.908Z,25.23
2018-11-04T18:01:30.830Z,32.60
2018-11-04T18:03:59.616Z,31.87
2018-11-04T18:06:28.630Z,32.38
2018-11-04T18:08:57.681Z,29.80
2018-11-04T18:11:26.913Z,26.00
2018-11-04T18:13:56.167Z,27.45
2018-11-04T18:16:24.850Z,29.25
2018-11-04T18:18:53.681Z,29.82
2018-11-04T18:21:22.436Z,27.37
2018-11-04T18:23:51.400Z,28.83
2018-11-04T18:26:20.326Z,24.72
2018-11-04T18:28:49.652Z,26.48
2018-11-04T18:31:19.416Z,23.35
2018-11-04T18:33:48.189Z,24.47
2018-11-04T18:36:17.545Z,20.97
2018-11-04T18:38:46.303Z,21.17
2018-11-04T18:41:15.309Z,19.10
2018-11-04T18:43:46.457Z,19.82
2018-11-04T18:46:15.222Z,20.00
2018-11-04T18:48:43.918Z,19.60
2018-11-04T18:51:13.804Z,18.70
2018-11-04T18:53:43.623Z,19.90
2018-11-04T18:56:12.428Z,19.92
2018-11-04T18:58:41.187Z,19.23
2018-11-04T19:01:10.082Z,21.95
2018-11-04T19:03:38.981Z,18.48
2018-11-04T19:06:07.736Z,16.10
2018-11-04T19:08:37.704Z,16.82
2018-11-04T19:11:07.550Z,19.02
2018-11-04T19:13:36.773Z,16.35
2018-11-04T19:16:05.938Z,20.17
2018-11-04T19:18:34.826Z,15.18
2018-11-04T19:21:03.597Z,16.27
2018-11-04T19:23:32.448Z,14.90
2018-11-04T19:26:01.383Z,13.83
2018-11-04T19:28:30.981Z,15.03
2018-11-04T19:30:59.789Z,15.60
2018-11-04T19:33:28.567Z,13.45
2018-11-04T19:35:57.630Z,15.45
2018-11-04T19:38:26.394Z,13.55
2018-11-04T19:40:55.149Z,10.90
2018-11-04T19:43:24.502Z,13.10
2018-11-04T19:45:53.244Z,13.93
2018-11-04T19:48:22.096Z,12.18
2018-11-04T19:50:51.574Z,13.85
2018-11-04T19:53:20.964Z,13.80
2018-11-04T19:55:49.693Z,13.45
2018-11-04T19:58:18.434Z,12.10
2018-11-04T20:00:47.152Z,13.32
2018-11-04T20:03:16.035Z,12.37
2018-11-04T20:05:44.787Z,10.95
2018-11-04T20:08:13.561Z,11.83
2018-11-04T20:10:42.395Z,11.45
2018-11-04T20:13:16.424Z,11.97
2018-11-04T20:15:48.022Z,11.83
2018-11-04T20:18:22.263Z,9.68
2018-11-04T20:20:51.160Z,10.93
2018-11-04T20:23:19.983Z,10.03
2018-11-04T20:25:54.194Z,13.75
2018-11-04T20:28:22.950Z,12.07
2018-11-04T20:30:53.663Z,11.20
2018-11-04T20:33:22.933Z,11.12
2018-11-04T20:35:51.731Z,8.48
2018-11-04T20:38:24.807Z,11.03
2018-11-04T20:40:59.211Z,11.03
2018-11-04T20:43:28.099Z,14.23
2018-11-04T20:45:56.855Z,9.25
2018-11-04T20:48:31.053Z,9.33
2018-11-04T20:51:02.911Z,10.23
2018-11-04T20:53:31.637Z,10.40
2018-11-04T20:56:06.115Z,9.45
2018-11-04T20:58:34.870Z,9.10
2018-11-04T21:01:03.669Z,8.85
2018-11-04T21:03:32.666Z,9.85
2018-11-04T21:06:01.695Z,6.75
2018-11-04T21:08:31.412Z,8.65
2018-11-04T21:11:00.334Z,7.90
2018-11-04T21:13:29.471Z,10.03
2018-11-04T21:15:59.378Z,9.10
2018-11-04T21:18:28.141Z,8.83
2018-11-04T21:20:56.851Z,12.85
2018-11-04T21:23:25.596Z,8.33
2018-11-04T21:25:54.410Z,10.10
2018-11-04T21:28:24.833Z,9.55
2018-11-04T21:30:55.969Z,9.78
2018-11-04T21:33:24.784Z,10.65
2018-11-04T21:35:53.580Z,10.48
2018-11-04T21:38:22.553Z,9.20
2018-11-04T21:40:51.353Z,12.73
2018-11-04T21:43:20.376Z,7.87
2018-11-04T21:45:48.977Z,6.45
2018-11-04T21:48:17.727Z,6.90
2018-11-04T21:50:46.456Z,11.28
2018-11-04T21:53:15.940Z,8.73
2018-11-04T21:55:45.028Z,8.58
2018-11-04T21:58:14.797Z,8.43
2018-11-04T22:00:43.603Z,8.33
2018-11-04T22:03:12.430Z,8.33
2018-11-04T22:05:41.081Z,7.15
2018-11-04T22:08:10.888Z,8.40
2018-11-04T22:10:39.990Z,6.75
2018-11-04T22:13:08.975Z,9.60
2018-11-04T22:15:37.667Z,6.55
2018-11-04T22:18:06.549Z,9.18
2018-11-04T22:20:35.209Z,6.58
2018-11-04T22:23:03.956Z,7.53
2018-11-04T22:25:32.689Z,8.70
2018-11-04T22:28:01.432Z,7.55
2018-11-04T22:30:30.192Z,6.97
2018-11-04T22:32:58.922Z,7.10
2018-11-04T22:35:27.718Z,7.30
2018-11-04T22:37:56.462Z,6.83
2018-11-04T22:40:25.213Z,7.08
2018-11-04T22:42:54.043Z,7.90
2018-11-04T22:45:22.777Z,8.10
2018-11-04T22:47:51.591Z,6.53
2018-11-04T22:50:20.484Z,8.75
2018-11-04T22:52:49.235Z,6.95
2018-11-04T22:55:18.056Z,6.60
2018-11-04T22:57:46.815Z,8.10
2018-11-04T23:00:20.936Z,7.80
2018-11-04T23:02:50.302Z,6.50
2018-11-04T23:05:24.513Z,6.75
2018-11-04T23:07:53.409Z,7.05
2018-11-04T23:10:22.151Z,5.78
2018-11-04T23:12:50.939Z,5.72
2018-11-04T23:15:19.695Z,6.80
2018-11-04T23:17:48.432Z,4.83
2018-11-04T23:20:17.168Z,6.58
2018-11-04T23:22:47.263Z,6.12
2018-11-04T23:25:17.643Z,7.62
2018-11-04T23:27:46.428Z,8.08
2018-11-04T23:30:16.381Z,7.10
2018-11-04T23:32:45.696Z,7.67
2018-11-04T23:35:14.451Z,6.85
2018-11-04T23:37:43.881Z,5.65
2018-11-04T23:40:12.936Z,6.17
2018-11-04T23:42:41.717Z,7.05
2018-11-04T23:45:11.777Z,7.80
2018-11-04T23:47:40.671Z,7.22
2018-11-04T23:50:11.707Z,7.55
2018-11-04T23:52:40.651Z,6.12
2018-11-04T23:55:10.196Z,6.67
2018-11-04T23:57:39.149Z,8.05
